General Abelardo L. Rodríguez International Airport
MMTJ : rendu visible

Aérodrome :











RETROUVEZ-NOUS SUR...

 
LOGIN :

S'inscrire | Disclaimer

   EN    FR    IT 

 









Légende :    VFR   VFR Marginal   IFR   IFR Intensif   IFR Très Intensif
Visi : 
Plafond : 
>= 8 km
>= 3000ft
5 à 8 km
1000 à 3000 ft
1500m à 5 km
500 à 1000 ft
800 à 1500m
200 à 500 ft
< 800m
< 200 ft
Symboles :   Orages  Brouillard  Fortes neiges  Fortes précipitations  Vent > 20 kt






- Altitude de l'aérodrome : 489 ft
- Code IATA : TIJ


MMTJ - General Abelardo L. Rodríguez International

DERNIER METAR :
  • 201149Z 24007KT 7SM BKN020 14/12 A2967 RMK SLP048 51004 990 8/700 HZY

METARs EXPIRÉS :
  • 201042Z 31003KT 6SM BKN015 14/11 A2967 RMK 8/700 HZY
  • 200943Z 25008KT 6SM BKN015 14/12 A2966 RMK 8/700 HZY

TAF TAF MMTJ
Valide du 20 à 12h jusqu'au 21 à 18h UTC


201048Z 2012/2118 32005KT 6SM HZ BKN015 TX22/2016Z TN14/2012Z
TEMPO 2012/2016 4SM -RA BKN015
FM201600 22005KT 4SM -RA BKN015 OVC020
TEMPO 2017/2020 1 1/2SM RA OVC006
FM202000 22014KT 3SM RA BKN008 OVC012
TEMPO 2100/2104 2SM RA OVC005
FM211300 00000KT 5SM -RA SCT010 BKN015 OVC040



MET'MAP, la Météo Aéronautique d'un coup d'oeil ! - Copyright ORBIFLY Décembre 2007 - Disclaimer

ORBIFLY MET'MAP TEAM :

Programmation & Développement : Alexandra Zaïnal
Conception & Développement : Baudouin d'Aumeries
Co-Programmation & Développement : Marc-Olivier Méhu
Soutien technique & logistique : Manuel Goepfert

Contact : metmap@orbifly.com




SOURCES & CREDITS :

   NOAA       Earth
Advisory